Terminal Aerodrome Forecast
Issued by NWS Flagstaff, AZ

Home | Current Version | Previous Version | Text Only | Print | Product List | Glossary On
Versions: 1 2 3 4 5 6 7 8 9 10 11 12 13 14 15 16 17 18
000
FTUS45 KFGZ 041140
TAFFLG
TAF
KFLG 041140Z 0412/0512 VRB05KT P6SM BKN080
     FM041800 23006KT P6SM SCT060 BKN080
      TEMPO 0419/0423 VRB15G25KT TSRA BKN060CB
     FM050230 VRB04KT P6SM FEW060 SCT100=

USA.gov is the U.S. government's official web portal to all federal, state and local government web resources and services.